createdAt,value
2023-11-25T00:01:01.914Z,98648.28
2023-11-25T00:02:05.190Z,98644.94
2023-11-25T00:03:08.259Z,98654.50
2023-11-25T00:04:11.253Z,98651.16
2023-11-25T00:05:14.298Z,98649.69
2023-11-25T00:06:17.048Z,98648.78
2023-11-25T00:07:21.471Z,98663.44
2023-11-25T00:08:26.369Z,98650.75
2023-11-25T00:09:29.264Z,98652.50
2023-11-25T00:10:31.976Z,98653.31
2023-11-25T00:11:34.944Z,98654.03
2023-11-25T00:12:37.941Z,98655.78
2023-11-25T00:13:41.097Z,98657.38
2023-11-25T00:14:45.007Z,98659.97
2023-11-25T00:15:47.944Z,98662.44
2023-11-25T00:16:52.308Z,98659.87
2023-11-25T00:17:56.305Z,98670.16
2023-11-25T00:18:58.982Z,98667.63
2023-11-25T00:20:02.131Z,98671.91
2023-11-25T00:21:05.143Z,98661.84
2023-11-25T00:22:08.100Z,98667.72
2023-11-25T00:23:11.087Z,98669.38
2023-11-25T00:24:13.811Z,98674.37
2023-11-25T00:25:17.116Z,98679.41
2023-11-25T00:26:20.615Z,98677.47
2023-11-25T00:27:25.645Z,98673.34
2023-11-25T00:28:28.816Z,98681.16
2023-11-25T00:29:31.740Z,98679.28
2023-11-25T00:30:34.877Z,98682.63
2023-11-25T00:31:37.694Z,98685.13
2023-11-25T00:32:40.502Z,98685.50
2023-11-25T00:33:43.840Z,98689.87
2023-11-25T00:34:46.476Z,98684.31
2023-11-25T00:35:49.391Z,98693.69
2023-11-25T00:36:55.080Z,98688.50
2023-11-25T00:37:57.899Z,98691.16
2023-11-25T00:39:01.027Z,98682.78
2023-11-25T00:40:11.629Z,98696.25
2023-11-25T00:41:14.599Z,98697.87
2023-11-25T00:42:17.476Z,98698.00
2023-11-25T00:43:20.159Z,98689.47
2023-11-25T00:44:23.428Z,98690.31
2023-11-25T00:45:28.020Z,98693.88
2023-11-25T00:46:31.260Z,98693.88
2023-11-25T00:47:34.400Z,98702.44
2023-11-25T00:48:37.252Z,98697.44
2023-11-25T00:49:41.606Z,98694.00
2023-11-25T00:50:44.233Z,98690.47
2023-11-25T00:51:47.224Z,98698.00
2023-11-25T00:52:49.914Z,98692.75
2023-11-25T00:53:52.602Z,98698.56
2023-11-25T00:54:56.051Z,98706.34
2023-11-25T00:55:58.685Z,98702.16
2023-11-25T00:57:05.011Z,98700.50
2023-11-25T00:58:08.540Z,98702.25
2023-11-25T00:59:11.421Z,98705.75
2023-11-25T01:00:17.763Z,98705.81
2023-11-25T01:01:21.416Z,98700.78
2023-11-25T01:02:25.256Z,98711.94
2023-11-25T01:03:28.948Z,98689.34
2023-11-25T01:04:31.834Z,98698.63
2023-11-25T01:05:34.998Z,98692.56
2023-11-25T01:06:37.948Z,98701.75
2023-11-25T01:07:40.857Z,98700.09
2023-11-25T01:08:43.565Z,98698.22
2023-11-25T01:09:46.225Z,98690.53
2023-11-25T01:10:49.263Z,98697.09
2023-11-25T01:11:52.087Z,98700.28
2023-11-25T01:12:54.651Z,98700.72
2023-11-25T01:13:58.276Z,98694.44
2023-11-25T01:15:00.862Z,98698.53
2023-11-25T01:16:06.184Z,98694.81
2023-11-25T01:17:10.548Z,98695.81
2023-11-25T01:18:13.534Z,98692.50
2023-11-25T01:19:16.204Z,98695.22
2023-11-25T01:20:19.228Z,98688.22
2023-11-25T01:21:22.397Z,98682.78
2023-11-25T01:22:25.974Z,98680.97
2023-11-25T01:23:28.579Z,98665.81
2023-11-25T01:24:31.527Z,98672.66
2023-11-25T01:25:34.235Z,98663.38
2023-11-25T01:26:37.361Z,98622.91
2023-11-25T01:27:40.127Z,98665.28
2023-11-25T01:28:43.504Z,98672.19
2023-11-25T01:29:47.109Z,98671.62
2023-11-25T01:30:50.336Z,98673.16
2023-11-25T01:31:53.450Z,98676.09
2023-11-25T01:32:56.404Z,98670.09
2023-11-25T01:33:59.273Z,98672.59
2023-11-25T01:35:02.348Z,98669.53
2023-11-25T01:36:06.053Z,98668.81
2023-11-25T01:37:09.941Z,98652.37
2023-11-25T01:38:13.026Z,98647.44
2023-11-25T01:39:16.034Z,98652.16
2023-11-25T01:40:18.767Z,98649.59
2023-11-25T01:41:21.341Z,98648.62
2023-11-25T01:42:25.993Z,98646.63
2023-11-25T01:43:29.051Z,98642.03
2023-11-25T01:44:33.240Z,98636.16
2023-11-25T01:45:36.143Z,98638.16
2023-11-25T01:46:39.755Z,98633.31
2023-11-25T01:47:43.807Z,98625.31
2023-11-25T01:48:47.273Z,98620.97
2023-11-25T01:49:51.114Z,98624.69
2023-11-25T01:50:54.142Z,98626.16
2023-11-25T01:51:57.010Z,98625.22
2023-11-25T01:53:00.686Z,98628.50
2023-11-25T01:54:07.628Z,98628.63
2023-11-25T01:55:12.671Z,98634.75
2023-11-25T01:56:18.684Z,98654.00
2023-11-25T01:57:21.885Z,98650.78
2023-11-25T01:58:24.963Z,98659.50
2023-11-25T01:59:28.848Z,98655.31
2023-11-25T02:00:31.549Z,98647.28
2023-11-25T02:02:38.523Z,98648.16
2023-11-25T02:03:42.042Z,98645.72
2023-11-25T02:04:44.992Z,98633.22
2023-11-25T02:05:48.007Z,98639.81
2023-11-25T02:06:51.385Z,98637.88
2023-11-25T02:07:54.299Z,98634.47
2023-11-25T02:08:57.210Z,98640.47
2023-11-25T02:09:59.938Z,98647.44
2023-11-25T02:11:02.519Z,98643.47
2023-11-25T02:12:06.137Z,98647.56
2023-11-25T02:13:09.690Z,98648.69
2023-11-25T02:14:13.126Z,98643.31
2023-11-25T02:15:19.743Z,98632.16
2023-11-25T02:16:22.929Z,98630.38
2023-11-25T02:17:26.096Z,98630.28
2023-11-25T02:18:29.004Z,98633.38
2023-11-25T02:19:32.978Z,98640.28
2023-11-25T02:20:42.200Z,98638.81
2023-11-25T02:21:46.145Z,98645.56
2023-11-25T02:22:58.659Z,98644.97
2023-11-25T02:24:01.580Z,98643.84
2023-11-25T02:25:06.001Z,98645.22
2023-11-25T02:26:09.483Z,98638.13
2023-11-25T02:27:13.354Z,98634.91
2023-11-25T02:28:17.803Z,98640.06
2023-11-25T02:29:20.491Z,98620.75
2023-11-25T02:30:27.958Z,98642.78
2023-11-25T02:31:30.973Z,98649.00
2023-11-25T02:32:34.893Z,98647.38
2023-11-25T02:33:37.989Z,98658.78
2023-11-25T02:34:41.147Z,98650.00
2023-11-25T02:35:45.282Z,98648.81
2023-11-25T02:36:49.790Z,98647.62
2023-11-25T02:37:52.772Z,98645.03
2023-11-25T02:38:55.370Z,98636.37
2023-11-25T02:39:58.076Z,98643.06
2023-11-25T02:41:01.042Z,98641.84
2023-11-25T02:42:07.068Z,98645.56
2023-11-25T02:43:09.724Z,98636.13
2023-11-25T02:44:13.333Z,98638.44
2023-11-25T02:45:19.771Z,98638.56
2023-11-25T02:46:24.899Z,98639.03
2023-11-25T02:47:27.876Z,98641.41
2023-11-25T02:48:31.481Z,98638.72
2023-11-25T02:49:34.222Z,98642.84
2023-11-25T02:50:37.942Z,98645.03
2023-11-25T02:51:56.942Z,98637.44
2023-11-25T02:52:59.912Z,98642.50
2023-11-25T02:54:02.822Z,98652.69
2023-11-25T02:55:06.154Z,98655.34
2023-11-25T02:56:09.087Z,98658.53
2023-11-25T02:57:13.245Z,98653.53
2023-11-25T02:58:16.505Z,98652.69
2023-11-25T02:59:19.656Z,98644.13
2023-11-25T03:01:31.014Z,98654.31
2023-11-25T03:02:34.974Z,98648.22
2023-11-25T03:03:43.203Z,98657.66
2023-11-25T03:04:49.079Z,98659.37
2023-11-25T03:05:54.450Z,98662.88
2023-11-25T03:06:59.341Z,98655.66
2023-11-25T03:08:02.541Z,98627.38
2023-11-25T03:09:07.589Z,98658.28
2023-11-25T03:10:11.192Z,98657.53
2023-11-25T03:11:19.822Z,98666.09
2023-11-25T03:12:23.830Z,98671.12
2023-11-25T03:13:27.024Z,98670.34
2023-11-25T03:14:29.644Z,98671.56
2023-11-25T03:15:32.892Z,98654.13
2023-11-25T03:16:36.333Z,98681.38
2023-11-25T03:17:39.982Z,98659.53
2023-11-25T03:18:43.194Z,98679.28
2023-11-25T03:19:46.605Z,98673.16
2023-11-25T03:20:49.952Z,98680.59
2023-11-25T03:21:53.949Z,98677.34
2023-11-25T03:22:56.967Z,98675.50
2023-11-25T03:24:00.701Z,98673.03
2023-11-25T03:25:06.249Z,98672.97
2023-11-25T03:26:13.289Z,98633.59
2023-11-25T03:27:16.810Z,98671.81
2023-11-25T03:28:21.275Z,98674.22
2023-11-25T03:29:24.456Z,98672.59
2023-11-25T03:30:30.005Z,98672.72
2023-11-25T03:31:34.431Z,98666.78
2023-11-25T03:32:37.475Z,98669.97
2023-11-25T03:33:40.225Z,98675.31
2023-11-25T03:34:43.514Z,98672.72
2023-11-25T03:35:46.447Z,98675.69
2023-11-25T03:36:49.132Z,98674.53
2023-11-25T03:37:52.085Z,98665.50
2023-11-25T03:38:55.494Z,98670.66
2023-11-25T03:39:58.724Z,98669.94
2023-11-25T03:41:02.726Z,98673.47
2023-11-25T03:42:05.943Z,98673.28
2023-11-25T03:43:09.824Z,98668.06
2023-11-25T03:44:12.987Z,98669.69
2023-11-25T03:45:17.041Z,98666.91
2023-11-25T03:46:19.901Z,98669.03
2023-11-25T03:47:22.917Z,98688.16
2023-11-25T03:48:25.735Z,98686.16
2023-11-25T03:49:28.389Z,98692.06
2023-11-25T03:50:31.692Z,98696.63
2023-11-25T03:51:34.724Z,98689.22
2023-11-25T03:52:37.594Z,98689.37
2023-11-25T03:53:40.234Z,98694.66
2023-11-25T03:54:42.847Z,98683.69
2023-11-25T03:55:45.886Z,98682.81
2023-11-25T03:56:50.230Z,98685.53
2023-11-25T03:57:53.113Z,98683.37
2023-11-25T03:58:55.995Z,98679.97
2023-11-25T03:59:58.839Z,98679.91
2023-11-25T04:01:02.538Z,98675.19
2023-11-25T04:02:05.701Z,98677.03
2023-11-25T04:03:10.133Z,98678.09
2023-11-25T04:04:13.263Z,98679.56
2023-11-25T04:05:19.585Z,98649.97
2023-11-25T04:06:27.240Z,98680.47
2023-11-25T04:07:32.115Z,98676.91
2023-11-25T04:08:35.053Z,98678.97
2023-11-25T04:09:37.974Z,98672.13
2023-11-25T04:10:40.615Z,98683.31
2023-11-25T04:11:43.907Z,98681.56
2023-11-25T04:12:48.266Z,98688.03
2023-11-25T04:13:51.358Z,98686.25
2023-11-25T04:14:54.220Z,98687.19
2023-11-25T04:15:56.818Z,98689.37
2023-11-25T04:16:59.776Z,98692.59
2023-11-25T04:18:03.971Z,98694.81
2023-11-25T04:19:06.596Z,98699.72
2023-11-25T04:20:14.765Z,98689.19
2023-11-25T04:21:24.361Z,98706.13
2023-11-25T04:22:27.366Z,98706.09
2023-11-25T04:23:31.838Z,98714.66
2023-11-25T04:24:35.818Z,98711.13
2023-11-25T04:25:39.198Z,98713.81
2023-11-25T04:26:42.314Z,98708.78
2023-11-25T04:27:49.953Z,98714.66
2023-11-25T04:28:53.976Z,98722.06
2023-11-25T04:29:56.878Z,98720.16
2023-11-25T04:30:59.897Z,98704.16
2023-11-25T04:32:02.616Z,98716.62
2023-11-25T04:33:08.197Z,98724.28
2023-11-25T04:34:11.412Z,98719.91
2023-11-25T04:35:17.589Z,98718.97
2023-11-25T04:36:20.541Z,98712.91
2023-11-25T04:37:23.220Z,98713.72
2023-11-25T04:38:25.896Z,98724.78
2023-11-25T04:39:29.455Z,98729.06
2023-11-25T04:40:32.357Z,98726.56
2023-11-25T04:41:35.007Z,98741.13
2023-11-25T04:42:38.137Z,98740.22
2023-11-25T04:43:41.228Z,98742.38
2023-11-25T04:44:44.831Z,98745.06
2023-11-25T04:45:47.711Z,98752.59
2023-11-25T04:46:50.411Z,98719.16
2023-11-25T04:47:54.377Z,98752.44
2023-11-25T04:48:57.091Z,98750.66
2023-11-25T04:50:00.368Z,98749.78
2023-11-25T04:51:03.463Z,98750.56
2023-11-25T04:52:06.371Z,98752.13
2023-11-25T04:53:09.260Z,98751.97
2023-11-25T04:54:12.172Z,98755.38
2023-11-25T04:55:15.814Z,98745.78
2023-11-25T04:56:18.996Z,98742.38
2023-11-25T04:57:21.885Z,98744.25
2023-11-25T04:58:24.689Z,98731.31
2023-11-25T04:59:27.488Z,98733.09
2023-11-25T05:00:30.751Z,98732.06
2023-11-25T05:01:33.960Z,98727.81
2023-11-25T05:02:38.534Z,98714.66
2023-11-25T05:03:41.558Z,98720.25
2023-11-25T05:04:44.213Z,98718.44
2023-11-25T05:05:47.409Z,98719.97
2023-11-25T05:06:49.943Z,98718.31
2023-11-25T05:07:52.602Z,98723.38
2023-11-25T05:08:55.470Z,98731.81
2023-11-25T05:09:58.193Z,98728.66
2023-11-25T05:11:01.082Z,98736.56
2023-11-25T05:12:04.124Z,98734.66
2023-11-25T05:13:08.250Z,98733.97
2023-11-25T05:14:11.479Z,98727.28
2023-11-25T05:15:14.342Z,98725.38
2023-11-25T05:16:18.534Z,98730.31
2023-11-25T05:17:22.835Z,98731.31
2023-11-25T05:18:25.669Z,98723.69
2023-11-25T05:19:28.346Z,98726.31
2023-11-25T05:20:31.195Z,98722.72
2023-11-25T05:21:34.448Z,98727.81
2023-11-25T05:22:37.333Z,98712.25
2023-11-25T05:23:40.393Z,98714.00
2023-11-25T05:24:42.993Z,98712.13
2023-11-25T05:25:45.893Z,98699.13
2023-11-25T05:26:48.837Z,98695.63
2023-11-25T05:27:51.763Z,98702.28
2023-11-25T05:28:54.616Z,98694.62
2023-11-25T05:29:57.585Z,98698.69
2023-11-25T05:31:00.194Z,98694.44
2023-11-25T05:32:04.360Z,98688.56
2023-11-25T05:33:07.258Z,98695.25
2023-11-25T05:34:13.939Z,98695.13
2023-11-25T05:35:17.231Z,98694.25
2023-11-25T05:36:20.081Z,98688.31
2023-11-25T05:37:23.873Z,98691.00
2023-11-25T05:38:29.245Z,98686.69
2023-11-25T05:39:32.092Z,98683.47
2023-11-25T05:40:37.639Z,98689.28
2023-11-25T05:41:44.209Z,98682.50
2023-11-25T05:42:55.063Z,98694.50
2023-11-25T05:43:59.023Z,98692.69
2023-11-25T05:45:01.817Z,98688.13
2023-11-25T05:46:04.536Z,98689.84
2023-11-25T05:47:07.191Z,98699.28
2023-11-25T05:48:10.261Z,98685.56
2023-11-25T05:49:13.216Z,98688.13
2023-11-25T05:50:22.253Z,98688.75
2023-11-25T05:51:33.827Z,98692.56
2023-11-25T05:52:36.773Z,98691.53
2023-11-25T05:53:39.969Z,98694.88
2023-11-25T05:54:44.195Z,98693.78
2023-11-25T05:55:47.085Z,98692.97
2023-11-25T05:56:50.056Z,98698.13
2023-11-25T05:57:53.914Z,98687.66
2023-11-25T05:59:00.255Z,98704.56
2023-11-25T06:00:02.977Z,98704.44
2023-11-25T06:01:14.548Z,98705.69
2023-11-25T06:02:17.833Z,98707.69
2023-11-25T06:03:20.498Z,98712.97
2023-11-25T06:04:23.584Z,98715.50
2023-11-25T06:05:28.892Z,98715.25
2023-11-25T06:06:35.136Z,98717.75
2023-11-25T06:07:38.855Z,98715.25
2023-11-25T06:08:41.684Z,98716.06
2023-11-25T06:09:44.652Z,98715.00
2023-11-25T06:10:50.197Z,98725.69
2023-11-25T06:11:53.136Z,98727.31
2023-11-25T06:12:56.070Z,98733.28
2023-11-25T06:14:01.864Z,98731.50
2023-11-25T06:15:06.559Z,98725.47
2023-11-25T06:16:09.204Z,98727.13
2023-11-25T06:17:13.261Z,98725.22
2023-11-25T06:18:18.615Z,98727.78
2023-11-25T06:19:22.128Z,98729.25
2023-11-25T06:20:26.657Z,98731.91
2023-11-25T06:21:29.712Z,98728.22
2023-11-25T06:22:32.622Z,98730.22
2023-11-25T06:23:35.732Z,98730.22
2023-11-25T06:24:38.956Z,98731.81
2023-11-25T06:25:44.080Z,98737.75
2023-11-25T06:26:49.129Z,98745.56
2023-11-25T06:27:52.051Z,98742.13
2023-11-25T06:28:56.569Z,98748.28
2023-11-25T06:29:59.608Z,98748.41
2023-11-25T06:31:05.432Z,98721.44
2023-11-25T06:32:08.333Z,98757.81
2023-11-25T06:33:10.931Z,98755.09
2023-11-25T06:34:14.616Z,98752.44
2023-11-25T06:35:17.592Z,98755.75
2023-11-25T06:36:20.510Z,98725.81
2023-11-25T06:37:24.632Z,98759.22
2023-11-25T06:38:27.604Z,98770.25
2023-11-25T06:39:33.106Z,98765.75
2023-11-25T06:40:36.536Z,98767.38
2023-11-25T06:41:44.373Z,98759.09
2023-11-25T06:42:47.011Z,98767.63
2023-11-25T06:43:51.042Z,98765.28
2023-11-25T06:44:54.124Z,98762.12
2023-11-25T06:45:57.115Z,98759.47
2023-11-25T06:47:00.042Z,98759.47
2023-11-25T06:48:03.974Z,98766.50
2023-11-25T06:49:08.353Z,98762.56
2023-11-25T06:50:16.915Z,98766.78
2023-11-25T06:51:19.601Z,98690.69
2023-11-25T06:52:22.239Z,98762.66
2023-11-25T06:53:25.286Z,98767.03
2023-11-25T06:54:28.232Z,98769.75
2023-11-25T06:55:36.906Z,98762.75
2023-11-25T06:56:39.816Z,98752.38
2023-11-25T06:57:42.810Z,98757.41
2023-11-25T06:58:47.042Z,98755.16
2023-11-25T06:59:53.203Z,98751.78
2023-11-25T07:00:59.027Z,98760.47
2023-11-25T07:02:01.769Z,98760.31
2023-11-25T07:03:05.316Z,98771.94
2023-11-25T07:04:08.857Z,98725.00
2023-11-25T07:05:11.871Z,98768.38
2023-11-25T07:06:20.308Z,98759.84
2023-11-25T07:07:23.250Z,98767.53
2023-11-25T07:08:28.985Z,98767.63
2023-11-25T07:09:31.815Z,98768.16
2023-11-25T07:10:36.350Z,98767.94
2023-11-25T07:11:39.689Z,98760.78
2023-11-25T07:12:43.282Z,98765.56
2023-11-25T07:13:46.237Z,98767.75
2023-11-25T07:14:49.154Z,98766.19
2023-11-25T07:15:53.102Z,98762.59
2023-11-25T07:16:56.280Z,98769.38
2023-11-25T07:17:59.671Z,98770.00
2023-11-25T07:19:06.541Z,98768.41
2023-11-25T07:20:13.528Z,98770.25
2023-11-25T07:21:16.942Z,98757.88
2023-11-25T07:22:22.967Z,98781.03
2023-11-25T07:23:25.792Z,98777.94
2023-11-25T07:24:28.814Z,98776.84
2023-11-25T07:25:33.929Z,98783.41
2023-11-25T07:26:44.020Z,98782.28
2023-11-25T07:27:48.214Z,98778.47
2023-11-25T07:28:51.139Z,98785.19
2023-11-25T07:29:55.952Z,98774.06
2023-11-25T07:30:58.806Z,98771.38
2023-11-25T07:32:01.862Z,98771.75
2023-11-25T07:33:05.347Z,98772.53
2023-11-25T07:34:09.347Z,98772.78
2023-11-25T07:35:14.440Z,98766.84
2023-11-25T07:36:17.343Z,98775.94
2023-11-25T07:37:20.440Z,98769.88
2023-11-25T07:38:24.510Z,98770.56
2023-11-25T07:39:30.667Z,98773.50
2023-11-25T07:40:36.255Z,98776.22
2023-11-25T07:42:59.622Z,98753.38
2023-11-25T07:44:16.415Z,98772.19
2023-11-25T07:45:22.067Z,98774.28
2023-11-25T07:46:25.094Z,98769.13
2023-11-25T07:47:27.913Z,98774.44
2023-11-25T07:48:34.003Z,98775.44
2023-11-25T07:49:39.740Z,98769.72
2023-11-25T07:50:51.129Z,98773.91
2023-11-25T07:51:59.185Z,98778.25
2023-11-25T07:53:02.421Z,98770.41
2023-11-25T07:54:05.912Z,98773.44
2023-11-25T07:55:10.186Z,98765.56
2023-11-25T07:56:12.841Z,98770.59
2023-11-25T07:57:15.420Z,98775.41
2023-11-25T07:58:19.621Z,98775.25
2023-11-25T07:59:22.514Z,98776.03
2023-11-25T08:00:28.515Z,98771.34
2023-11-25T08:01:36.811Z,98759.94
2023-11-25T08:02:39.824Z,98775.03
2023-11-25T08:03:52.402Z,98764.97
2023-11-25T08:04:58.478Z,98761.09
2023-11-25T08:06:01.289Z,98764.28
2023-11-25T08:07:04.353Z,98764.09
2023-11-25T08:08:07.003Z,98769.31
2023-11-25T08:09:13.398Z,98767.78
2023-11-25T08:10:17.362Z,98763.47
2023-11-25T08:11:27.742Z,98770.19
2023-11-25T08:12:31.817Z,98769.44
2023-11-25T08:13:34.497Z,98770.50
2023-11-25T08:14:37.350Z,98769.13
2023-11-25T08:15:39.908Z,98772.34
2023-11-25T08:16:42.499Z,98772.06
2023-11-25T08:17:45.676Z,98766.37
2023-11-25T08:18:49.077Z,98765.34
2023-11-25T08:19:52.072Z,98762.00
2023-11-25T08:20:54.778Z,98760.31
2023-11-25T08:21:57.668Z,98756.56
2023-11-25T08:23:01.072Z,98753.84
2023-11-25T08:24:04.107Z,98753.81
2023-11-25T08:25:09.563Z,98754.88
2023-11-25T08:26:28.599Z,98754.22
2023-11-25T08:27:31.858Z,98754.97
2023-11-25T08:28:34.776Z,98758.00
2023-11-25T08:29:39.334Z,98755.50
2023-11-25T08:30:43.215Z,98759.34
2023-11-25T08:31:45.881Z,98762.75
2023-11-25T08:32:48.777Z,98767.41
2023-11-25T08:33:51.953Z,98764.25
2023-11-25T08:34:54.798Z,98767.63
2023-11-25T08:35:57.680Z,98769.84
2023-11-25T08:37:00.318Z,98770.38
2023-11-25T08:38:03.250Z,98769.13
2023-11-25T08:39:06.491Z,98771.00
2023-11-25T08:40:19.078Z,98774.22
2023-11-25T08:41:22.137Z,98783.84
2023-11-25T08:42:27.437Z,98786.41
2023-11-25T08:43:30.481Z,98785.03
2023-11-25T08:44:34.032Z,98783.00
2023-11-25T08:45:38.535Z,98789.78
2023-11-25T08:46:44.303Z,98787.34
2023-11-25T08:47:47.127Z,98786.84
2023-11-25T08:48:49.837Z,98783.63
2023-11-25T08:49:52.834Z,98791.59
2023-11-25T08:50:55.776Z,98788.16
2023-11-25T08:51:58.676Z,98788.25
2023-11-25T08:53:03.501Z,98789.78
2023-11-25T08:54:06.535Z,98793.09
2023-11-25T08:55:14.294Z,98789.44
2023-11-25T08:56:16.937Z,98795.03
2023-11-25T08:57:21.172Z,98796.97
2023-11-25T08:58:27.052Z,98800.31
2023-11-25T08:59:32.496Z,98801.75
2023-11-25T09:00:35.485Z,98794.25
2023-11-25T09:01:39.388Z,98802.00
2023-11-25T09:02:44.681Z,98805.22
2023-11-25T09:03:47.519Z,98809.63
2023-11-25T09:04:59.684Z,98811.16
2023-11-25T09:06:09.759Z,98806.78
2023-11-25T09:07:15.404Z,98807.06
2023-11-25T09:08:18.246Z,98813.59
2023-11-25T09:09:21.821Z,98811.66
2023-11-25T09:10:26.556Z,98808.28
2023-11-25T09:11:30.161Z,98809.66
2023-11-25T09:12:33.140Z,98809.63
2023-11-25T09:13:35.724Z,98807.16
2023-11-25T09:14:39.570Z,98812.28
2023-11-25T09:15:43.594Z,98805.59
2023-11-25T09:16:47.191Z,98806.97
2023-11-25T09:17:50.029Z,98810.66
2023-11-25T09:18:55.329Z,98804.63
2023-11-25T09:19:58.928Z,98802.69
2023-11-25T09:21:01.920Z,98799.03
2023-11-25T09:22:05.412Z,98796.87
2023-11-25T09:23:08.069Z,98806.63
2023-11-25T09:24:10.905Z,98805.84
2023-11-25T09:25:13.917Z,98800.25
2023-11-25T09:26:16.803Z,98794.03
2023-11-25T09:27:19.696Z,98799.03
2023-11-25T09:28:22.753Z,98799.03
2023-11-25T09:29:25.654Z,98797.22
2023-11-25T09:30:28.553Z,98791.91
2023-11-25T09:31:31.181Z,98798.28
2023-11-25T09:32:34.926Z,98791.13
2023-11-25T09:33:37.690Z,98793.75
2023-11-25T09:34:40.699Z,98785.22
2023-11-25T09:35:43.328Z,98785.22
2023-11-25T09:36:46.230Z,98793.56
2023-11-25T09:37:50.334Z,98789.19
2023-11-25T09:38:53.377Z,98785.31
2023-11-25T09:39:55.927Z,98786.00
2023-11-25T09:40:58.655Z,98781.06
2023-11-25T09:42:01.874Z,98780.34
2023-11-25T09:43:04.831Z,98789.03
2023-11-25T09:44:09.728Z,98785.91
2023-11-25T09:45:13.931Z,98783.66
2023-11-25T09:46:17.679Z,98779.84
2023-11-25T09:47:20.546Z,98786.25
2023-11-25T09:48:24.344Z,98783.28
2023-11-25T09:49:27.449Z,98782.37
2023-11-25T09:50:30.147Z,98788.31
2023-11-25T09:51:34.204Z,98781.13
2023-11-25T09:52:52.595Z,98783.22
2023-11-25T09:53:58.575Z,98787.97
2023-11-25T09:55:02.686Z,98777.59
2023-11-25T09:56:07.178Z,98784.53
2023-11-25T09:57:11.211Z,98789.50
2023-11-25T09:58:18.989Z,98760.88
2023-11-25T09:59:23.684Z,98783.44
2023-11-25T10:00:28.296Z,98784.38
2023-11-25T10:01:32.123Z,98783.34
2023-11-25T10:02:37.188Z,98785.69
2023-11-25T10:03:44.275Z,98787.84
2023-11-25T10:04:49.086Z,98790.56
2023-11-25T10:05:51.981Z,98788.75
2023-11-25T10:06:55.533Z,98790.13
2023-11-25T10:07:58.719Z,98789.97
2023-11-25T10:09:03.039Z,98789.25
2023-11-25T10:10:06.627Z,98792.19
2023-11-25T10:11:09.687Z,98783.59
2023-11-25T10:12:12.616Z,98785.09
2023-11-25T10:13:15.579Z,98789.44
2023-11-25T10:14:21.389Z,98787.78
2023-11-25T10:15:24.597Z,98797.00
2023-11-25T10:16:31.330Z,98795.63
2023-11-25T10:17:34.593Z,98794.13
2023-11-25T10:18:38.917Z,98800.03
2023-11-25T10:19:41.919Z,98794.47
2023-11-25T10:20:44.890Z,98805.66
2023-11-25T10:21:52.172Z,98795.72
2023-11-25T10:22:59.460Z,98799.28
2023-11-25T10:24:09.743Z,98813.97
2023-11-25T10:25:12.690Z,98816.41
2023-11-25T10:26:19.194Z,98817.72
2023-11-25T10:27:23.187Z,98820.97
2023-11-25T10:28:27.631Z,98812.59
2023-11-25T10:29:33.023Z,98816.09
2023-11-25T10:30:35.957Z,98809.38
2023-11-25T10:31:42.936Z,98808.19
2023-11-25T10:32:45.964Z,98797.22
2023-11-25T10:33:49.178Z,98800.81
2023-11-25T10:34:56.823Z,98803.84
2023-11-25T10:36:00.320Z,98801.09
2023-11-25T10:37:06.003Z,98794.25
2023-11-25T10:38:09.114Z,98815.56
2023-11-25T10:39:12.427Z,98802.31
2023-11-25T10:40:18.283Z,98821.72
2023-11-25T10:41:21.764Z,98804.31
2023-11-25T10:42:24.623Z,98805.00
2023-11-25T10:43:28.850Z,98814.78
2023-11-25T10:44:32.065Z,98822.41
2023-11-25T10:45:35.376Z,98823.31
2023-11-25T10:46:41.917Z,98823.41
2023-11-25T10:47:45.607Z,98823.47
2023-11-25T10:48:50.029Z,98808.47
2023-11-25T10:49:53.043Z,98818.31
2023-11-25T10:50:56.425Z,98827.59
2023-11-25T10:52:03.451Z,98819.06
2023-11-25T10:53:06.851Z,98825.25
2023-11-25T10:54:10.446Z,98830.09
2023-11-25T10:55:14.485Z,98819.44
2023-11-25T10:56:20.744Z,98824.63
2023-11-25T10:57:27.323Z,98825.53
2023-11-25T10:58:32.798Z,98824.53
2023-11-25T10:59:40.341Z,98816.03
2023-11-25T11:00:43.630Z,98824.31
2023-11-25T11:01:46.627Z,98823.31
2023-11-25T11:02:54.236Z,98824.00
2023-11-25T11:04:14.767Z,98828.97
2023-11-25T11:05:29.815Z,98826.59
2023-11-25T11:06:47.951Z,98827.44
2023-11-25T11:08:02.875Z,98836.94
2023-11-25T11:09:10.645Z,98823.84
2023-11-25T11:10:31.366Z,98825.09
2023-11-25T11:11:48.674Z,98830.00
2023-11-25T11:13:03.429Z,98831.56
2023-11-25T11:14:13.222Z,98832.84
2023-11-25T11:15:17.080Z,98834.81
2023-11-25T11:16:48.399Z,98836.34
2023-11-25T11:18:20.818Z,98842.28
2023-11-25T11:19:30.174Z,98845.38
2023-11-25T11:20:33.822Z,98849.59
2023-11-25T11:21:39.734Z,98838.72
2023-11-25T11:22:46.572Z,98851.28
2023-11-25T11:23:49.989Z,98849.59
2023-11-25T11:25:13.949Z,98847.72
2023-11-25T11:26:31.533Z,98844.66
2023-11-25T11:28:00.465Z,98846.06
2023-11-25T11:29:10.059Z,98835.81
2023-11-25T11:30:25.119Z,98832.16
2023-11-25T11:31:33.862Z,98835.66
2023-11-25T11:32:38.375Z,98830.16
2023-11-25T11:33:41.252Z,98827.13
2023-11-25T11:34:44.990Z,98790.44
2023-11-25T11:35:48.209Z,98819.66
2023-11-25T11:36:52.633Z,98817.63
2023-11-25T11:37:58.870Z,98789.81
2023-11-25T11:39:02.574Z,98828.19
2023-11-25T11:40:07.996Z,98832.28
2023-11-25T11:41:12.000Z,98820.88
2023-11-25T11:42:23.531Z,98833.19
2023-11-25T11:43:30.119Z,98832.34
2023-11-25T11:44:35.729Z,98828.16
2023-11-25T11:45:38.722Z,98837.38
2023-11-25T11:46:43.985Z,98831.88
2023-11-25T11:47:48.842Z,98828.44
2023-11-25T11:48:52.501Z,98830.28
2023-11-25T11:49:55.414Z,98824.16
2023-11-25T11:50:59.397Z,98818.03
2023-11-25T11:52:03.824Z,98826.31
2023-11-25T11:53:14.139Z,98825.97
2023-11-25T11:54:22.361Z,98822.34
2023-11-25T11:55:40.899Z,98823.41
2023-11-25T11:57:02.452Z,98815.78
2023-11-25T11:58:19.775Z,98815.91
2023-11-25T11:59:22.608Z,98796.66
2023-11-25T12:00:28.282Z,98819.16
2023-11-25T12:01:32.845Z,98818.09
2023-11-25T12:02:39.150Z,98822.94
2023-11-25T12:03:42.205Z,98813.91
2023-11-25T12:04:48.233Z,98821.13
2023-11-25T12:05:53.128Z,98818.53
2023-11-25T12:06:57.024Z,98822.00
2023-11-25T12:08:02.780Z,98816.88
2023-11-25T12:09:06.017Z,98813.59
2023-11-25T12:10:11.632Z,98816.66
2023-11-25T12:11:14.544Z,98818.75
2023-11-25T12:12:17.713Z,98808.16
2023-11-25T12:13:31.530Z,98810.16
2023-11-25T12:14:37.006Z,98816.81
2023-11-25T12:15:40.152Z,98818.09
2023-11-25T12:16:44.394Z,98819.41
2023-11-25T12:17:48.091Z,98822.78
2023-11-25T12:18:51.104Z,98814.41
2023-11-25T12:19:54.478Z,98817.50
2023-11-25T12:20:58.693Z,98824.28
2023-11-25T12:22:01.598Z,98818.84
2023-11-25T12:23:10.904Z,98822.69
2023-11-25T12:24:14.332Z,98827.63
2023-11-25T12:25:20.685Z,98831.81
2023-11-25T12:26:26.465Z,98831.91
2023-11-25T12:27:31.331Z,98838.34
2023-11-25T12:28:43.133Z,98841.00
2023-11-25T12:29:46.026Z,98835.34
2023-11-25T12:30:48.861Z,98831.62
2023-11-25T12:31:51.568Z,98830.94
2023-11-25T12:32:54.735Z,98825.41
2023-11-25T12:34:01.645Z,98831.44
2023-11-25T12:35:05.999Z,98828.84
2023-11-25T12:36:09.401Z,98833.84
2023-11-25T12:37:14.427Z,98835.53
2023-11-25T12:38:19.642Z,98829.66
2023-11-25T12:39:25.640Z,98822.25
2023-11-25T12:40:29.420Z,98819.31
2023-11-25T12:41:33.916Z,98815.16